Terminal Aerodrome Forecast
Issued by NWS

Home | Current Version | Previous Version | Text Only | Print | Product List | Glossary On
Versions: 1 2 3 4 5 6 7 8 9 10 11 12 13 14 15 16 17 18 19 20 21
000
FTUS45 KREV 280500
TAFCXP
TAF
KCXP 280520Z 2806/0106 VRB03KT 6SM -SHRASN SCT030 BKN050
     FM281000 VRB03KT 2SM -SN SCT009 OVC018
     FM281800 VRB04KT 3SM -SHSNPL SCT010 OVC020
     FM282200 01007KT 5SM -SHSN SCT015 BKN025
     FM010100 35005KT P6SM VCSH OVC030=

USA.gov is the U.S. government's official web portal to all federal, state and local government web resources and services.